Time;durP1;ratioP1;P1;durP2;ratioP2;P2;SDS_P1;SDS_P2;PMS_P1;PMS_P2;Temp;Humidity;BMP_temperature;BMP_pressure;BME280_temperature;BME280_humidity;BME280_pressure;Samples;Min_cycle;Max_cycle;Signal;HPM_P1;HPM_P2
2021/10/24 00:00:33;;;;;;;4.45;1.90;;;;;;;15.81;34.93;98583.59;5039982;28;20082;-69
2021/10/24 00:02:59;;;;;;;2.45;1.83;;;;;;;15.76;35.37;98605.66;5055967;28;20048;-69
2021/10/24 00:05:24;;;;;;;3.10;2.10;;;;;;;15.66;35.49;98601.81;5054908;28;20142;-69
2021/10/24 00:07:50;;;;;;;4.40;2.40;;;;;;;15.84;35.07;98591.19;5072208;28;20051;-69
2021/10/24 00:10:16;;;;;;;4.13;2.00;;;;;;;15.75;35.35;98595.19;5072240;28;20047;-68
2021/10/24 00:12:42;;;;;;;3.75;1.70;;;;;;;15.43;35.61;98564.09;5054945;28;20036;-70
2021/10/24 00:15:08;;;;;;;3.13;1.80;;;;;;;15.54;35.14;98507.22;5039259;28;20396;-70
2021/10/24 00:17:34;;;;;;;3.05;1.90;;;;;;;15.74;35.19;98594.38;5039354;28;20036;-69
2021/10/24 00:19:59;;;;;;;6.00;2.08;;;;;;;15.50;35.73;98603.16;5039372;28;20094;-69
2021/10/24 00:22:25;;;;;;;3.63;1.60;;;;;;;15.40;36.16;98594.78;5073144;28;20040;-70
2021/10/24 00:24:51;;;;;;;6.22;2.03;;;;;;;15.67;35.55;98568.69;5056205;28;20135;-71
2021/10/24 00:27:16;;;;;;;6.68;1.80;;;;;;;15.71;35.39;98593.97;5073021;28;20082;-68
2021/10/24 00:29:42;;;;;;;2.28;1.90;;;;;;;15.72;35.91;98599.13;5039755;28;20526;-75
2021/10/24 00:32:08;;;;;;;5.90;2.00;;;;;;;15.46;36.64;98603.78;5040530;28;20139;-71
2021/10/24 00:34:34;;;;;;;3.75;1.80;;;;;;;15.62;36.37;98601.44;5040054;28;20036;-74
2021/10/24 00:37:00;;;;;;;4.72;2.03;;;;;;;15.53;36.29;98581.31;5039311;28;20089;-77
2021/10/24 00:39:26;;;;;;;8.18;1.88;;;;;;;15.26;37.21;98595.84;5024056;28;20383;-78
2021/10/24 00:41:52;;;;;;;5.78;2.15;;;;;;;15.42;36.34;98599.91;5040728;28;20044;-77
2021/10/24 00:44:21;;;;;;;2.88;1.88;;;;;;;15.90;36.34;98604.53;5043627;28;20051;-81
2021/10/24 00:46:50;;;;;;;3.63;1.90;;;;;;;15.52;37.11;98611.78;5044469;28;20039;-79
2021/10/24 00:49:16;;;;;;;3.60;2.17;;;;;;;15.41;36.78;98588.38;5043318;28;20047;-80
2021/10/24 00:51:42;;;;;;;4.80;1.92;;;;;;;15.49;36.84;98606.88;5024092;28;20098;-79
2021/10/24 00:54:09;;;;;;;3.55;2.00;;;;;;;15.89;36.74;98612.78;5023455;28;20130;-73
2021/10/24 00:56:35;;;;;;;4.10;2.10;;;;;;;15.37;37.15;98597.03;5039949;28;20051;-73
2021/10/24 00:59:01;;;;;;;4.50;2.10;;;;;;;15.65;36.97;98610.91;5039735;28;20045;-72
2021/10/24 01:01:27;;;;;;;3.28;2.10;;;;;;;15.58;36.54;98596.72;5040214;28;20209;-73
2021/10/24 01:03:53;;;;;;;4.45;2.20;;;;;;;15.90;36.23;98617.94;5041090;28;20067;-72
2021/10/24 01:06:19;;;;;;;2.92;2.17;;;;;;;15.79;36.58;98613.25;5039874;28;20559;-72
2021/10/24 01:08:44;;;;;;;2.00;1.70;;;;;;;15.58;36.97;98602.91;5023178;28;20515;-72
2021/10/24 01:11:10;;;;;;;4.85;1.90;;;;;;;15.27;37.57;98605.50;5056216;28;20139;-73
2021/10/24 01:13:36;;;;;;;3.28;2.00;;;;;;;15.17;37.54;98613.16;5057040;28;20479;-73
2021/10/24 01:16:10;;;;;;;3.88;1.83;;;;;;;15.80;37.34;98604.22;5056269;28;20078;-74
2021/10/24 01:18:38;;;;;;;3.40;2.10;;;;;;;15.80;37.09;98617.59;5040334;28;20055;-72
2021/10/24 01:21:04;;;;;;;3.33;1.92;;;;;;;15.99;36.70;98610.47;5041125;28;20048;-71
2021/10/24 01:23:30;;;;;;;2.70;2.08;;;;;;;15.91;36.91;98616.91;5040265;28;20138;-73
2021/10/24 01:25:57;;;;;;;3.50;2.10;;;;;;;16.10;36.56;98610.59;5055979;28;20070;-74
2021/10/24 01:28:23;;;;;;;4.78;2.20;;;;;;;15.71;36.72;98621.56;5022574;28;20052;-74
2021/10/24 01:30:49;;;;;;;6.28;2.42;;;;;;;15.66;36.96;98612.53;5055821;28;20149;-72
2021/10/24 01:33:15;;;;;;;2.95;2.40;;;;;;;15.81;36.46;98615.72;5056002;28;20047;-73
2021/10/24 01:35:58;;;;;;;3.30;1.83;;;;;;;16.27;35.96;98592.09;5055612;28;20487;-74
2021/10/24 01:38:25;;;;;;;2.10;1.92;;;;;;;16.20;36.34;98623.50;5057263;28;20042;-74
2021/10/24 01:40:54;;;;;;;4.15;1.88;;;;;;;15.81;37.01;98610.38;5056794;28;20117;-74
2021/10/24 01:43:22;;;;;;;5.35;1.85;;;;;;;16.09;36.17;98624.19;5055767;28;20044;-74
2021/10/24 01:45:48;;;;;;;4.60;2.30;;;;;;;15.71;36.72;98620.75;5053863;28;20521;-73
2021/10/24 01:48:21;;;;;;;4.70;2.13;;;;;;;16.16;36.44;98631.13;5054181;28;20036;-75
2021/10/24 01:50:48;;;;;;;2.33;2.00;;;;;;;15.77;36.90;98633.28;5036603;28;20057;-75
2021/10/24 01:53:22;;;;;;;6.47;2.22;;;;;;;15.87;37.01;98626.41;5053444;28;20136;-74
2021/10/24 01:55:49;;;;;;;5.70;2.38;;;;;;;15.72;36.67;98615.19;5037169;28;20048;-74
2021/10/24 01:58:15;;;;;;;3.35;1.95;;;;;;;15.85;36.57;98630.34;5038571;28;20066;-74
2021/10/24 02:00:43;;;;;;;3.40;1.98;;;;;;;15.94;36.32;98635.22;5021624;28;20107;-75
2021/10/24 02:03:10;;;;;;;4.20;2.17;;;;;;;16.03;36.61;98647.31;5055282;28;20052;-74
2021/10/24 02:05:42;;;;;;;5.03;2.22;;;;;;;15.60;36.77;98616.06;5090353;28;20117;-73
2021/10/24 02:08:09;;;;;;;3.90;2.17;;;;;;;16.03;36.01;98636.59;5055152;28;20131;-73
2021/10/24 02:10:36;;;;;;;5.13;2.15;;;;;;;16.00;36.16;98615.63;5055580;28;20141;-74
2021/10/24 02:13:05;;;;;;;2.05;1.70;;;;;;;16.46;35.64;98639.38;5054982;28;20717;-75
2021/10/24 02:15:36;;;;;;;3.45;2.00;;;;;;;16.07;36.08;98636.97;5040694;28;20495;-72
2021/10/24 02:18:03;;;;;;;2.45;1.90;;;;;;;16.27;35.87;98641.16;5054916;28;20036;-72
2021/10/24 02:20:35;;;;;;;2.80;1.92;;;;;;;16.11;36.27;98641.69;5069762;28;20056;-74
2021/10/24 02:23:02;;;;;;;6.38;2.10;;;;;;;15.77;36.78;98627.91;5069812;28;20056;-72
2021/10/24 02:25:29;;;;;;;3.45;1.70;;;;;;;15.65;37.08;98643.84;5036388;28;20131;-74
2021/10/24 02:27:56;;;;;;;2.25;1.90;;;;;;;15.77;36.69;98642.13;5036667;28;20407;-74
2021/10/24 02:30:22;;;;;;;4.50;1.92;;;;;;;15.63;36.77;98640.56;5036443;28;20478;-74
2021/10/24 02:32:48;;;;;;;2.92;1.77;;;;;;;15.80;36.54;98640.88;5037303;28;20075;-74
2021/10/24 02:35:39;;;;;;;4.38;2.05;;;;;;;15.43;37.14;98639.00;5029440;28;20040;-74
2021/10/24 02:38:06;;;;;;;3.92;2.05;;;;;;;14.99;38.41;98648.59;5059414;28;20040;-73
2021/10/24 02:40:32;;;;;;;2.22;1.70;;;;;;;15.75;36.95;98643.38;5059418;28;20055;-72
2021/10/24 02:43:00;;;;;;;4.05;1.90;;;;;;;15.91;36.78;98653.56;5042723;28;20063;-73
2021/10/24 02:45:30;;;;;;;2.83;1.90;;;;;;;15.73;36.58;98648.94;5093589;28;20104;-73
2021/10/24 02:47:57;;;;;;;3.17;1.83;;;;;;;15.49;37.12;98630.97;5042421;28;20040;-72
2021/10/24 02:50:24;;;;;;;4.32;1.80;;;;;;;15.65;36.82;98645.69;5060336;28;20047;-71
2021/10/24 02:52:51;;;;;;;2.80;1.60;;;;;;;15.61;37.20;98650.66;5060924;28;20048;-72
2021/10/24 02:55:17;;;;;;;2.97;1.80;;;;;;;16.06;36.28;98651.41;5058875;28;20050;-72
2021/10/24 02:57:43;;;;;;;2.42;1.67;;;;;;;16.00;36.21;98650.44;5042670;28;20048;-72
2021/10/24 03:00:10;;;;;;;3.45;1.60;;;;;;;15.85;36.67;98649.88;5025955;28;20101;-71
2021/10/24 03:02:36;;;;;;;1.95;1.60;;;;;;;15.85;36.44;98649.88;5075424;28;20109;-73
2021/10/24 03:05:07;;;;;;;2.08;1.60;;;;;;;16.05;36.54;98655.94;5058705;28;20079;-72
2021/10/24 03:07:33;;;;;;;2.53;1.38;;;;;;;15.50;37.29;98645.97;5042246;28;20056;-72
2021/10/24 03:09:59;;;;;;;3.25;1.60;;;;;;;15.64;36.84;98650.22;5043545;28;20032;-72
2021/10/24 03:12:25;;;;;;;1.50;1.17;;;;;;;15.48;36.64;98655.25;5042690;28;20043;-73
2021/10/24 03:14:51;;;;;;;1.27;1.02;;;;;;;15.68;36.24;98651.47;5041421;28;20492;-72
2021/10/24 03:17:18;;;;;;;1.83;1.20;;;;;;;15.83;35.92;98651.97;5058653;28;20047;-73
2021/10/24 03:19:44;;;;;;;1.45;1.23;;;;;;;15.94;35.78;98650.47;5041961;28;20059;-74
2021/10/24 03:22:10;;;;;;;1.63;1.25;;;;;;;15.65;36.75;98651.88;5041969;28;20043;-75
2021/10/24 03:24:37;;;;;;;0.80;0.80;;;;;;;15.05;37.11;98655.78;5074916;28;20043;-75
2021/10/24 03:27:03;;;;;;;0.70;0.70;;;;;;;15.53;36.59;98668.81;5059090;28;20043;-72
2021/10/24 03:29:30;;;;;;;0.70;0.70;;;;;;;15.66;35.55;98674.94;5059457;28;20418;-72
2021/10/24 03:31:56;;;;;;;0.80;0.80;;;;;;;15.90;35.28;98678.72;5058175;28;20500;-71
2021/10/24 03:34:22;;;;;;;0.68;0.65;;;;;;;15.64;35.23;98668.13;5058085;28;20036;-71
2021/10/24 03:36:48;;;;;;;1.20;0.70;;;;;;;15.56;35.42;98677.22;5074561;28;20047;-73
2021/10/24 03:39:15;;;;;;;1.00;0.55;;;;;;;15.76;35.18;98671.78;5041860;28;20048;-73
2021/10/24 03:41:40;;;;;;;0.60;0.60;;;;;;;15.82;34.85;98685.13;5058030;28;20036;-76
2021/10/24 03:44:09;;;;;;;0.50;0.50;;;;;;;15.70;34.83;98688.72;5042455;28;20078;-76
2021/10/24 03:46:36;;;;;;;0.50;0.50;;;;;;;15.68;35.10;98686.25;5060337;28;20047;-75
2021/10/24 03:49:02;;;;;;;0.50;0.50;;;;;;;15.83;34.79;98677.91;5042793;28;20048;-76
2021/10/24 03:51:28;;;;;;;0.70;0.70;;;;;;;15.69;34.95;98681.69;5042178;28;20044;-75
2021/10/24 03:53:54;;;;;;;0.50;0.50;;;;;;;15.69;35.01;98697.75;5041882;28;20131;-73
2021/10/24 03:56:20;;;;;;;1.02;0.60;;;;;;;15.38;35.02;98658.38;5057692;28;20069;-74
2021/10/24 03:58:46;;;;;;;0.45;0.45;;;;;;;15.66;34.75;98692.84;5057566;28;20036;-74
2021/10/24 04:01:16;;;;;;;0.80;0.50;;;;;;;15.61;34.51;98672.06;5058312;28;20055;-73
2021/10/24 04:03:42;;;;;;;1.33;0.60;;;;;;;15.69;34.54;98666.47;5057977;28;20052;-73
2021/10/24 04:06:07;;;;;;;0.47;0.47;;;;;;;15.54;35.09;98702.56;5075228;28;20635;-73
2021/10/24 04:08:33;;;;;;;0.50;0.50;;;;;;;15.80;34.86;98697.09;5057725;28;20078;-74
2021/10/24 04:11:00;;;;;;;0.50;0.50;;;;;;;15.68;35.10;98696.97;5024162;28;20101;-73
2021/10/24 04:13:26;;;;;;;0.43;0.43;;;;;;;15.64;35.40;98706.44;5040576;28;20040;-73
2021/10/24 04:15:52;;;;;;;0.40;0.40;;;;;;;15.58;35.51;98698.41;5056694;28;20063;-73
2021/10/24 04:18:41;;;;;;;0.47;0.47;;;;;;;15.65;35.72;98702.75;5022997;28;20051;-74
2021/10/24 04:21:07;;;;;;;0.63;0.50;;;;;;;15.63;35.56;98712.81;5057367;28;20077;-73
2021/10/24 04:23:33;;;;;;;0.50;0.50;;;;;;;15.73;35.21;98715.84;5059428;28;20040;-73
2021/10/24 04:25:59;;;;;;;0.63;0.50;;;;;;;15.68;35.54;98706.84;5074153;28;20039;-73
2021/10/24 04:28:26;;;;;;;0.50;0.50;;;;;;;15.62;35.57;98703.13;5057572;28;20123;-72
2021/10/24 04:30:51;;;;;;;0.77;0.52;;;;;;;15.44;35.82;98720.94;5073265;28;20082;-73
2021/10/24 04:33:17;;;;;;;0.60;0.60;;;;;;;15.56;35.99;98717.38;5040647;28;20075;-74
2021/10/24 04:35:43;;;;;;;1.15;0.80;;;;;;;15.88;35.27;98726.31;5040214;28;20486;-73
2021/10/24 04:38:09;;;;;;;1.17;1.05;;;;;;;15.79;35.08;98723.03;5039999;28;20164;-72
2021/10/24 04:40:35;;;;;;;0.70;0.60;;;;;;;15.56;35.47;98701.31;5057254;28;20079;-73
2021/10/24 04:43:05;;;;;;;1.20;0.60;;;;;;;15.72;35.19;98730.28;5025723;28;20146;-73
2021/10/24 04:45:33;;;;;;;0.52;0.52;;;;;;;15.84;35.09;98736.63;5039770;28;20126;-73
2021/10/24 04:47:59;;;;;;;4.22;0.60;;;;;;;15.78;34.83;98732.13;5039684;28;20507;-72
2021/10/24 04:50:34;;;;;;;1.15;0.80;;;;;;;15.98;34.59;98740.88;5025511;28;20365;-73
2021/10/24 04:53:06;;;;;;;0.80;0.80;;;;;;;16.14;34.66;98724.31;5023307;28;20048;-73
2021/10/24 04:55:33;;;;;;;1.67;0.60;;;;;;;15.62;35.16;98729.09;5056287;28;20050;-74
2021/10/24 04:57:58;;;;;;;4.88;1.05;;;;;;;15.82;35.17;98746.69;5056414;28;20044;-74
2021/10/24 05:00:24;;;;;;;0.60;0.60;;;;;;;15.71;35.18;98760.78;5023989;28;20059;-75
2021/10/24 05:02:51;;;;;;;0.55;0.55;;;;;;;15.84;35.21;98758.03;5039778;28;20143;-74
2021/10/24 05:05:20;;;;;;;0.60;0.60;;;;;;;15.98;35.06;98769.50;5040680;28;20507;-74
2021/10/24 05:07:46;;;;;;;0.70;0.70;;;;;;;15.89;35.01;98760.91;5073477;28;20098;-74
2021/10/24 05:10:11;;;;;;;0.65;0.57;;;;;;;15.91;35.01;98771.41;5040038;28;20072;-74
2021/10/24 05:12:37;;;;;;;2.47;0.70;;;;;;;15.82;35.51;98775.34;5056447;28;20035;-74
2021/10/24 05:15:04;;;;;;;0.65;0.65;;;;;;;16.17;35.27;98777.47;5022854;28;20062;-74
2021/10/24 05:17:34;;;;;;;2.38;0.82;;;;;;;15.83;35.26;98780.50;5057108;28;20500;-74
2021/10/24 05:20:00;;;;;;;0.70;0.70;;;;;;;15.85;35.51;98786.44;5039807;28;20051;-74
2021/10/24 05:22:26;;;;;;;1.20;0.90;;;;;;;15.94;35.29;98790.56;5039387;28;20078;-74
2021/10/24 05:24:52;;;;;;;1.67;0.70;;;;;;;16.06;34.93;98799.56;5055813;28;20109;-73
2021/10/24 05:27:18;;;;;;;0.65;0.60;;;;;;;15.92;35.09;98794.47;5039400;28;20118;-73
2021/10/24 05:29:45;;;;;;;1.60;0.80;;;;;;;15.69;35.34;98768.19;5055543;28;20052;-73
2021/10/24 05:32:10;;;;;;;0.65;0.65;;;;;;;16.04;34.83;98790.91;5022817;28;20055;-67
2021/10/24 05:34:36;;;;;;;0.80;0.80;;;;;;;15.97;34.91;98786.63;5072140;28;20043;-66
2021/10/24 05:37:10;;;;;;;1.40;0.95;;;;;;;16.27;34.74;98791.19;5056953;28;20082;-68
2021/10/24 05:39:36;;;;;;;1.85;1.15;;;;;;;16.06;34.62;98796.03;5039177;28;20040;-65
2021/10/24 05:42:11;;;;;;;0.80;0.77;;;;;;;16.08;34.67;98802.03;5072439;28;20040;-67
2021/10/24 05:44:38;;;;;;;0.50;0.50;;;;;;;15.64;34.96;98800.13;5072368;28;20653;-66
2021/10/24 05:47:04;;;;;;;0.68;0.60;;;;;;;15.95;34.70;98808.25;5055527;28;20131;-66
2021/10/24 05:49:30;;;;;;;1.02;0.60;;;;;;;15.99;34.42;98811.34;5055520;28;20036;-65
2021/10/24 05:51:56;;;;;;;0.93;0.60;;;;;;;15.85;34.49;98801.72;5071841;28;20116;-66
2021/10/24 05:54:23;;;;;;;0.60;0.60;;;;;;;15.95;34.30;98818.13;5055237;28;20138;-67
2021/10/24 05:56:49;;;;;;;0.50;0.50;;;;;;;15.88;34.44;98826.22;5071870;28;20044;-64
2021/10/24 05:59:24;;;;;;;0.52;0.52;;;;;;;15.99;34.50;98825.53;5056640;28;20071;-64
2021/10/24 06:02:12;;;;;;;0.82;0.50;;;;;;;16.07;33.83;98827.97;5074328;28;20562;-67
2021/10/24 06:05:07;;;;;;;1.33;0.50;;;;;;;16.19;33.58;98833.50;5034264;28;20501;-67
2021/10/24 06:07:35;;;;;;;0.65;0.60;;;;;;;15.98;33.68;98845.31;5054579;28;20055;-66
2021/10/24 06:10:02;;;;;;;0.50;0.50;;;;;;;16.08;33.60;98848.38;5069623;28;20043;-66
2021/10/24 06:13:13;;;;;;;0.73;0.70;;;;;;;16.15;33.43;98843.81;5054843;28;20490;-66
2021/10/24 06:15:16;;;;;;;0.73;0.73;;;;;;;16.50;32.97;98845.13;5081448;28;20271;-66
2021/10/24 06:17:43;;;;;;;0.70;0.70;;;;;;;16.39;33.30;98850.31;5089213;28;20032;-67
2021/10/24 06:20:10;;;;;;;0.73;0.60;;;;;;;16.45;33.02;98854.84;5071421;28;20195;-67
2021/10/24 06:22:37;;;;;;;1.65;0.80;;;;;;;16.49;33.09;98867.59;5089744;28;20437;-67
2021/10/24 06:25:06;;;;;;;0.80;0.80;;;;;;;16.61;32.48;98868.56;5022281;28;20043;-67
2021/10/24 06:27:37;;;;;;;1.35;1.05;;;;;;;16.81;32.46;98869.25;5071304;28;20443;-67
2021/10/24 06:30:07;;;;;;;4.85;1.00;;;;;;;16.64;32.41;98852.03;5038163;28;20040;-66
2021/10/24 06:32:52;;;;;;;3.45;1.20;;;;;;;16.78;31.90;98877.75;5074625;28;20167;-66
2021/10/24 06:35:38;;;;;;;1.05;0.80;;;;;;;16.85;31.72;98875.03;5087896;28;20052;-67
2021/10/24 06:38:22;;;;;;;0.90;0.90;;;;;;;16.81;31.92;98876.47;5089824;28;20068;-67
2021/10/24 06:40:50;;;;;;;2.08;1.00;;;;;;;16.79;32.24;98868.66;5071389;28;20066;-67
2021/10/24 06:43:22;;;;;;;0.98;0.88;;;;;;;16.82;31.98;98886.19;5071650;28;20066;-66
2021/10/24 06:46:06;;;;;;;0.90;0.90;;;;;;;16.73;32.34;98884.78;5089408;28;20036;-66
2021/10/24 06:48:55;;;;;;;0.80;0.80;;;;;;;16.82;32.00;98862.84;5066996;28;20167;-66
2021/10/24 06:51:37;;;;;;;3.08;1.08;;;;;;;16.69;32.35;98880.88;5056912;28;20044;-66
2021/10/24 06:54:17;;;;;;;;;;;;;;;17.63;31.23;98893.22;5089838;28;20047;-67
2021/10/24 06:57:02;;;;;;;4.18;0.75;;;;;;;16.92;32.17;98889.22;5089473;28;20446;-66
2021/10/24 06:59:46;;;;;;;0.63;0.63;;;;;;;16.81;32.25;98892.56;5089108;28;20028;-66
2021/10/24 07:02:48;;;;;;;0.80;0.80;;;;;;;17.07;32.28;98872.81;5087694;28;20090;-66
2021/10/24 07:05:32;;;;;;;1.20;1.10;;;;;;;16.90;32.24;98895.84;5055827;28;20044;-68
2021/10/24 07:08:03;;;;;;;1.47;0.90;;;;;;;17.01;32.32;98903.16;5052583;28;20605;-68
2021/10/24 07:10:29;;;;;;;1.10;1.00;;;;;;;16.92;32.28;98905.31;5054261;28;20036;-67
2021/10/24 07:12:54;;;;;;;2.00;1.10;;;;;;;16.85;32.33;98904.53;5089194;28;20040;-68
2021/10/24 07:15:22;;;;;;;1.65;1.40;;;;;;;16.94;32.02;98905.91;5053316;28;20059;-68
2021/10/24 07:17:51;;;;;;;1.50;1.08;;;;;;;16.91;32.38;98913.56;5037636;28;20044;-68
2021/10/24 07:20:18;;;;;;;1.75;1.10;;;;;;;16.81;32.20;98909.50;5037759;28;20200;-68
2021/10/24 07:22:53;;;;;;;2.25;1.70;;;;;;;17.13;31.85;98918.34;5073102;28;20051;-68
2021/10/24 07:25:23;;;;;;;2.65;1.05;;;;;;;17.69;31.36;98924.56;5075201;28;20047;-70
2021/10/24 07:27:50;;;;;;;1.48;0.80;;;;;;;17.49;31.28;98918.53;5074874;28;20050;-68
2021/10/24 07:30:16;;;;;;;1.60;0.90;;;;;;;17.45;31.18;98924.56;5074576;28;20478;-68
2021/10/24 07:32:51;;;;;;;0.88;0.88;;;;;;;17.49;31.09;98928.44;5058662;28;20052;-69
2021/10/24 07:35:35;;;;;;;1.48;0.90;;;;;;;17.28;31.17;98908.16;5092150;28;20047;-70
2021/10/24 07:38:06;;;;;;;0.77;0.60;;;;;;;17.98;30.70;98939.16;5057547;28;20052;-71
2021/10/24 07:40:39;;;;;;;3.35;0.98;;;;;;;17.79;30.41;98938.28;5108076;28;20384;-69
2021/10/24 07:43:10;;;;;;;2.00;1.17;;;;;;;17.72;30.63;98942.91;5075120;28;20043;-68
2021/10/24 07:45:36;;;;;;;1.40;0.80;;;;;;;17.77;30.90;98950.31;5057667;28;20119;-69
2021/10/24 07:48:04;;;;;;;1.10;0.70;;;;;;;17.77;30.98;98945.78;5057871;28;20128;-68
2021/10/24 07:50:32;;;;;;;13.82;9.05;;;;;;;17.25;31.36;98945.34;5074420;28;20040;-68
2021/10/24 07:53:00;;;;;;;3.38;1.75;;;;;;;17.66;31.28;98943.78;5074540;28;20505;-68
2021/10/24 07:55:43;;;;;;;1.08;0.90;;;;;;;17.47;30.94;98954.69;5107379;28;20044;-67
2021/10/24 07:58:18;;;;;;;1.80;0.90;;;;;;;17.78;31.00;98960.84;5058504;28;20055;-68
2021/10/24 08:00:45;;;;;;;0.80;0.80;;;;;;;17.56;30.85;98946.13;5091907;28;20396;-67
2021/10/24 08:03:11;;;;;;;0.88;0.82;;;;;;;17.76;30.94;98976.34;5092118;28;20625;-69
2021/10/24 08:05:38;;;;;;;0.88;0.80;;;;;;;18.01;30.39;98979.00;5057581;28;20035;-68
2021/10/24 08:08:05;;;;;;;0.70;0.70;;;;;;;18.30;30.05;98965.69;5073762;28;20623;-69
2021/10/24 08:10:31;;;;;;;0.80;0.80;;;;;;;18.17;30.19;98987.31;5073649;28;20066;-69
2021/10/24 08:12:57;;;;;;;0.68;0.68;;;;;;;18.24;30.14;98974.63;5074004;28;20039;-69
2021/10/24 08:15:23;;;;;;;3.75;1.00;;;;;;;18.29;30.46;98982.88;5071703;28;20137;-67
2021/10/24 08:17:52;;;;;;;1.40;0.75;;;;;;;17.86;30.59;98982.06;5036264;28;20044;-70
2021/10/24 08:20:37;;;;;;;2.75;1.20;;;;;;;17.92;30.63;98983.84;5070000;28;20403;-69
2021/10/24 08:23:03;;;;;;;6.18;4.32;;;;;;;17.66;31.12;98981.41;5039074;28;20499;-67
2021/10/24 08:25:29;;;;;;;22.65;13.07;;;;;;;17.63;30.95;98978.31;5039102;28;20046;-65
2021/10/24 08:27:55;;;;;;;2.13;1.20;;;;;;;17.46;31.51;98987.94;5072823;28;20553;-68
2021/10/24 08:30:39;;;;;;;1.30;1.20;;;;;;;17.45;31.61;98992.47;5088436;28;20032;-66
2021/10/24 08:33:20;;;;;;;3.42;1.00;;;;;;;17.33;31.92;99004.13;5047989;28;20498;-71
2021/10/24 08:35:47;;;;;;;2.10;1.00;;;;;;;17.78;31.68;98986.84;5071596;28;20082;-67
2021/10/24 08:38:14;;;;;;;1.55;1.35;;;;;;;17.67;32.08;99003.69;5069014;28;20789;-69
2021/10/24 08:40:42;;;;;;;1.40;1.10;;;;;;;17.43;32.31;98999.91;5089618;28;20079;-69
2021/10/24 08:43:18;;;;;;;1.33;1.23;;;;;;;18.15;31.66;99002.03;5098460;28;20044;-70
2021/10/24 08:45:45;;;;;;;1.48;1.20;;;;;;;18.38;30.48;98999.53;5088944;28;20078;-71
2021/10/24 08:48:11;;;;;;;2.10;1.60;;;;;;;18.41;30.25;98978.41;5054364;28;20048;-69
2021/10/24 08:50:38;;;;;;;2.83;1.70;;;;;;;18.34;29.64;99014.47;5049726;28;20105;-68
2021/10/24 08:53:06;;;;;;;1.58;1.00;;;;;;;18.88;29.29;99022.53;5035485;28;20035;-69
2021/10/24 08:55:32;;;;;;;1.00;0.90;;;;;;;18.34;29.74;99028.69;5070498;28;20040;-69
2021/10/24 08:57:58;;;;;;;1.65;1.00;;;;;;;17.95;29.87;98996.00;5071115;28;20043;-69
2021/10/24 09:00:24;;;;;;;1.17;0.80;;;;;;;17.94;30.06;99008.63;5088756;28;20035;-69
2021/10/24 09:03:09;;;;;;;0.80;0.80;;;;;;;18.63;29.77;99032.59;5094786;28;20043;-68
2021/10/24 09:05:46;;;;;;;1.17;0.98;;;;;;;18.68;29.87;99048.06;5051956;28;20036;-67
2021/10/24 09:08:19;;;;;;;1.52;1.10;;;;;;;18.79;29.78;99045.41;5069841;28;20038;-69
2021/10/24 09:10:56;;;;;;;2.30;1.13;;;;;;;18.93;29.43;99052.28;5088466;28;20067;-68
2021/10/24 09:13:24;;;;;;;2.17;1.30;;;;;;;18.66;30.20;99048.28;5069489;28;20434;-69
2021/10/24 09:16:00;;;;;;;3.10;1.75;;;;;;;18.89;29.54;99058.34;5036804;28;20665;-67
2021/10/24 09:18:37;;;;;;;3.42;1.30;;;;;;;18.73;28.83;99062.47;5036919;28;20032;-67
2021/10/24 09:21:16;;;;;;;3.80;1.30;;;;;;;18.73;28.26;99073.22;5053191;28;20479;-67
2021/10/24 09:23:46;;;;;;;4.25;1.20;;;;;;;18.20;28.51;99072.06;5068678;28;20040;-68
2021/10/24 09:26:26;;;;;;;1.50;1.40;;;;;;;18.58;27.56;99074.63;5087898;28;20048;-67
2021/10/24 09:29:03;;;;;;;3.70;1.33;;;;;;;18.45;27.72;99071.03;5066616;28;20032;-68
2021/10/24 09:31:59;;;;;;;2.92;1.40;;;;;;;18.73;27.33;99092.06;5063981;28;20113;-67
2021/10/24 09:34:26;;;;;;;4.00;1.80;;;;;;;18.08;27.93;99084.59;5051902;28;20109;-69
2021/10/24 09:37:17;;;;;;;5.03;2.13;;;;;;;18.48;27.01;99090.47;5070289;28;20056;-67
2021/10/24 09:39:43;;;;;;;1.50;1.10;;;;;;;18.02;27.16;99115.03;5087817;28;20036;-68
2021/10/24 09:42:21;;;;;;;2.20;0.88;;;;;;;18.35;26.85;99102.97;5036716;28;20153;-66
2021/10/24 09:45:10;;;;;;;2.85;1.00;;;;;;;18.39;26.80;99120.31;5088326;28;20043;-68
2021/10/24 09:47:44;;;;;;;2.95;0.90;;;;;;;17.95;27.17;99100.78;5044358;28;20039;-70
2021/10/24 09:50:33;;;;;;;2.55;1.20;;;;;;;18.53;27.01;99118.31;5038035;28;20040;-69
2021/10/24 09:53:37;;;;;;;2.65;1.30;;;;;;;18.44;27.28;99130.41;5053377;28;20048;-67
2021/10/24 09:56:07;;;;;;;1.35;1.20;;;;;;;18.35;27.22;99129.00;5086620;28;20101;-70
2021/10/24 09:58:49;;;;;;;1.58;1.13;;;;;;;18.42;26.39;99136.00;5089562;28;20051;-70
2021/10/24 10:01:16;;;;;;;1.15;1.05;;;;;;;18.00;26.53;99101.81;5088632;28;20757;-68
2021/10/24 10:03:47;;;;;;;1.85;1.05;;;;;;;17.69;26.60;99114.41;5068543;28;20074;-68
2021/10/24 10:06:12;;;;;;;3.97;1.53;;;;;;;17.34;27.03;99142.66;5054562;28;20135;-69
2021/10/24 10:08:44;;;;;;;1.10;0.70;;;;;;;17.57;26.94;99151.03;5012606;28;20123;-69
2021/10/24 10:11:16;;;;;;;0.90;0.80;;;;;;;17.60;26.65;99137.19;5053055;28;20047;-67
2021/10/24 10:13:44;;;;;;;1.10;0.80;;;;;;;17.49;27.19;99170.06;5087120;28;20062;-68
2021/10/24 10:16:12;;;;;;;1.55;1.13;;;;;;;17.33;27.60;99165.97;5069477;28;20522;-72
2021/10/24 10:19:09;;;;;;;0.82;0.82;;;;;;;17.61;27.53;99171.06;5061646;28;20036;-70
2021/10/24 10:21:42;;;;;;;6.18;2.60;;;;;;;17.67;28.14;99180.94;5046659;28;20075;-68
2021/10/24 10:24:10;;;;;;;5.25;2.75;;;;;;;17.44;28.59;99183.31;5087648;28;20124;-70
2021/10/24 10:26:54;;;;;;;1.40;1.10;;;;;;;17.63;28.62;99187.78;5070677;28;20032;-72
2021/10/24 10:29:52;;;;;;;5.97;1.05;;;;;;;17.70;28.14;99180.50;5068959;28;20036;-68
2021/10/24 10:32:36;;;;;;;2.95;1.20;;;;;;;17.68;28.12;99191.47;5068244;28;20515;-66
2021/10/24 10:35:09;;;;;;;2.83;1.50;;;;;;;17.29;28.64;99194.28;5053361;28;20047;-71
2021/10/24 10:37:58;;;;;;;3.72;1.20;;;;;;;17.61;28.32;99195.22;5053885;28;20064;-70
2021/10/24 10:40:34;;;;;;;2.17;1.10;;;;;;;17.40;28.68;99195.50;5056744;28;20040;-66
2021/10/24 10:43:20;;;;;;;1.55;1.17;;;;;;;17.61;28.47;99209.47;5070803;28;20121;-70
2021/10/24 10:45:59;;;;;;;4.45;1.20;;;;;;;17.20;29.18;99205.47;5067582;28;20086;-68
2021/10/24 10:48:37;;;;;;;1.23;1.13;;;;;;;16.99;29.63;99211.09;5069371;28;20147;-69
2021/10/24 10:51:24;;;;;;;4.18;1.30;;;;;;;17.11;30.02;99220.16;5033070;28;20126;-71
2021/10/24 10:54:05;;;;;;;1.30;1.20;;;;;;;17.02;29.56;99197.25;5067919;28;20107;-70
2021/10/24 10:56:41;;;;;;;1.83;1.08;;;;;;;16.94;29.60;99214.41;5068764;28;20165;-68
2021/10/24 10:59:08;;;;;;;1.70;0.90;;;;;;;16.67;29.43;99212.75;5056693;28;20048;-77
2021/10/24 11:01:37;;;;;;;1.00;0.90;;;;;;;16.99;29.23;99216.47;5040684;28;20047;-74
2021/10/24 11:04:09;;;;;;;3.17;1.00;;;;;;;17.26;28.48;99240.34;5039916;28;20101;-75
2021/10/24 11:06:38;;;;;;;1.42;0.95;;;;;;;16.77;28.74;99237.31;5057284;28;20050;-78
2021/10/24 11:09:12;;;;;;;1.20;1.00;;;;;;;16.91;28.81;99238.13;5056441;28;20521;-81
2021/10/24 11:11:41;;;;;;;6.18;1.00;;;;;;;16.56;28.82;99235.66;5054780;28;20036;-79
2021/10/24 11:14:16;;;;;;;5.75;1.30;;;;;;;17.14;28.38;99236.66;5073179;28;20138;-68
2021/10/24 11:16:49;;;;;;;1.35;1.25;;;;;;;17.01;28.67;99252.75;5073507;28;20063;-71
2021/10/24 11:19:31;;;;;;;3.40;1.40;;;;;;;17.29;28.37;99244.47;5092160;28;20082;-77
2021/10/24 11:22:01;;;;;;;2.78;1.02;;;;;;;17.25;28.34;99254.78;5091214;28;20047;-78
2021/10/24 11:24:48;;;;;;;1.67;1.58;;;;;;;17.35;28.20;99257.88;5091970;28;20101;-74
2021/10/24 11:27:27;;;;;;;3.40;2.20;;;;;;;16.67;28.60;99244.94;5054012;28;20131;-80
2021/10/24 11:29:54;;;;;;;2.97;2.20;;;;;;;16.41;28.82;99269.00;5040996;28;20064;-81
2021/10/24 11:32:33;;;;;;;2.17;1.85;;;;;;;16.77;28.57;99272.19;5041398;28;20503;-80
2021/10/24 11:35:01;;;;;;;2.72;1.90;;;;;;;16.48;28.96;99273.38;5039380;28;20567;-79
2021/10/24 11:37:49;;;;;;;1.95;1.38;;;;;;;16.85;28.28;99290.75;5041891;28;20076;-76
2021/10/24 11:40:19;;;;;;;1.63;1.20;;;;;;;16.02;29.53;99293.84;5072273;28;20035;-78
2021/10/24 11:43:07;;;;;;;1.55;1.10;;;;;;;16.44;29.83;99298.13;5023943;28;20042;-80
2021/10/24 11:45:36;;;;;;;1.33;1.15;;;;;;;16.11;30.49;99303.41;5077524;28;20042;-77
2021/10/24 11:48:17;;;;;;;2.55;1.30;;;;;;;16.21;30.51;99303.81;5072709;28;20046;-72
2021/10/24 11:50:48;;;;;;;1.10;1.00;;;;;;;16.30;29.93;99310.66;5055348;28;20059;-75